Time;durP1;ratioP1;P1;durP2;ratioP2;P2;SDS_P1;SDS_P2;PMS_P1;PMS_P2;Temp;Humidity;BMP_temperature;BMP_pressure;BME280_temperature;BME280_humidity;BME280_pressure;Samples;Min_cycle;Max_cycle;Signal;HPM_P1;HPM_P2
2022/05/01 00:01:19;;;;;;;14.73;13.23;;;9.60;99.90;;;;;;5054549;28;20469;-71
2022/05/01 00:04:08;;;;;;;13.33;12.03;;;9.50;99.90;;;;;;5054806;28;20513;-71
2022/05/01 00:06:57;;;;;;;12.60;11.50;;;9.50;99.90;;;;;;5053776;28;20555;-71
2022/05/01 00:09:46;;;;;;;14.27;12.77;;;9.40;99.90;;;;;;5055219;28;20461;-71
2022/05/01 00:12:35;;;;;;;14.03;12.70;;;9.40;99.90;;;;;;5051664;28;20461;-71
2022/05/01 00:15:24;;;;;;;13.70;12.40;;;9.30;99.90;;;;;;5054417;28;20474;-71
2022/05/01 00:18:12;;;;;;;14.13;12.90;;;9.30;99.90;;;;;;5056356;28;20518;-71
2022/05/01 00:21:00;;;;;;;13.43;12.13;;;9.20;99.90;;;;;;5053387;28;20652;-71
2022/05/01 00:23:48;;;;;;;13.77;12.47;;;9.20;99.90;;;;;;5053308;28;20647;-71
2022/05/01 00:26:37;;;;;;;15.00;13.43;;;9.20;99.90;;;;;;5054585;28;20861;-71
2022/05/01 00:29:25;;;;;;;14.40;13.07;;;9.10;99.90;;;;;;5056599;28;20494;-71
2022/05/01 00:32:14;;;;;;;13.83;12.40;;;9.10;99.90;;;;;;5054031;28;20527;-71
2022/05/01 00:38:07;;;;;;;15.20;13.63;;;9.00;99.90;;;;;;5053609;28;20559;-71
2022/05/01 00:40:55;;;;;;;13.63;12.43;;;9.00;99.90;;;;;;5054376;28;20954;-71
2022/05/01 00:43:58;;;;;;;14.80;13.50;;;8.90;99.90;;;;;;5053862;28;20539;-71
2022/05/01 00:46:48;;;;;;;15.10;13.67;;;8.90;99.90;;;;;;5054285;28;20532;-73
2022/05/01 00:49:36;;;;;;;14.10;12.70;;;8.80;99.90;;;;;;5055643;28;20462;-71
2022/05/01 00:52:25;;;;;;;14.50;13.00;;;8.80;99.90;;;;;;5051002;28;20485;-72
2022/05/01 00:55:14;;;;;;;15.13;13.67;;;8.70;99.90;;;;;;5053089;28;20486;-72
2022/05/01 00:58:04;;;;;;;15.07;13.53;;;8.70;99.90;;;;;;5055886;28;20599;-72
2022/05/01 01:00:54;;;;;;;13.70;12.30;;;8.70;99.90;;;;;;5054474;28;20458;-73
2022/05/01 01:03:42;;;;;;;13.97;12.57;;;8.60;99.90;;;;;;5051419;28;20482;-72
2022/05/01 01:06:30;;;;;;;14.20;12.90;;;8.60;99.90;;;;;;5052781;28;20996;-70
2022/05/01 01:09:19;;;;;;;15.60;14.00;;;8.60;99.90;;;;;;5052072;28;20573;-71
2022/05/01 01:15:28;;;;;;;15.10;13.50;;;8.50;99.90;;;;;;5053363;28;20572;-70
2022/05/01 01:18:18;;;;;;;13.50;12.30;;;8.40;99.90;;;;;;5052351;28;20990;-72
2022/05/01 01:21:10;;;;;;;16.03;13.77;;;8.40;99.90;;;;;;5058494;28;20596;-73
2022/05/01 01:23:59;;;;;;;13.83;12.43;;;8.40;99.90;;;;;;5057554;28;20593;-72
2022/05/01 01:26:47;;;;;;;13.17;11.87;;;8.30;99.90;;;;;;5053168;28;20537;-72
2022/05/01 01:32:43;;;;;;;14.13;12.80;;;8.20;99.90;;;;;;5057490;28;20462;-72
2022/05/01 01:35:36;;;;;;;14.40;12.37;;;8.20;99.90;;;;;;5052463;28;20484;-71
2022/05/01 01:38:26;;;;;;;15.40;13.80;;;8.20;99.90;;;;;;5052896;28;20516;-73
2022/05/01 01:41:18;;;;;;;14.50;13.07;;;8.10;99.90;;;;;;5059477;28;20821;-70
2022/05/01 01:44:08;;;;;;;14.93;13.33;;;8.00;99.90;;;;;;5052887;28;20789;-71
2022/05/01 01:46:56;;;;;;;13.70;12.40;;;8.00;99.90;;;;;;5058746;28;20454;-71
2022/05/01 01:49:44;;;;;;;15.13;13.73;;;8.00;99.90;;;;;;5057047;28;21008;-71
2022/05/01 01:52:33;;;;;;;14.23;12.93;;;7.90;99.90;;;;;;5051750;28;20547;-71
2022/05/01 01:55:23;;;;;;;13.40;12.17;;;7.90;99.90;;;;;;5054451;28;21414;-71
2022/05/01 01:58:11;;;;;;;16.10;12.80;;;7.90;99.90;;;;;;5056822;28;20616;-71
2022/05/01 02:01:00;;;;;;;13.53;12.23;;;7.80;99.90;;;;;;5057016;28;20449;-71
2022/05/01 02:03:48;;;;;;;14.20;12.87;;;7.80;99.90;;;;;;5057355;28;20934;-73
2022/05/01 02:06:37;;;;;;;14.47;13.00;;;7.80;99.90;;;;;;5058661;28;20823;-73
2022/05/01 02:09:25;;;;;;;13.73;12.47;;;7.80;99.90;;;;;;5056652;28;20518;-70
2022/05/01 02:12:16;;;;;;;13.60;12.30;;;7.80;99.90;;;;;;5056492;28;21044;-70
2022/05/01 02:15:05;;;;;;;14.57;12.93;;;7.70;99.90;;;;;;5056590;28;21017;-71
2022/05/01 02:17:53;;;;;;;13.77;12.53;;;7.70;99.90;;;;;;5057299;28;20546;-71
2022/05/01 02:23:46;;;;;;;15.43;13.93;;;7.70;99.90;;;;;;5058603;28;20832;-72
2022/05/01 02:26:35;;;;;;;14.10;12.83;;;7.80;99.90;;;;;;5056007;28;20464;-72
2022/05/01 02:29:26;;;;;;;14.53;13.03;;;7.70;99.90;;;;;;5056232;28;20470;-72
2022/05/01 02:32:14;;;;;;;14.30;12.80;;;7.70;99.90;;;;;;5057018;28;20454;-72
2022/05/01 02:35:02;;;;;;;13.90;12.60;;;7.70;99.90;;;;;;5055438;28;20565;-72
2022/05/01 02:37:50;;;;;;;14.07;12.70;;;7.80;99.90;;;;;;5057140;28;20576;-72
2022/05/01 02:40:39;;;;;;;15.97;14.37;;;7.70;99.90;;;;;;5055263;28;20509;-72
2022/05/01 02:43:27;;;;;;;15.60;14.00;;;7.80;99.90;;;;;;5056213;28;20462;-72
2022/05/01 02:46:16;;;;;;;14.60;12.90;;;7.80;99.90;;;;;;5056714;28;20461;-72
2022/05/01 02:49:05;;;;;;;14.30;13.00;;;7.80;99.90;;;;;;5055336;28;20477;-72
2022/05/01 02:51:53;;;;;;;14.33;12.70;;;7.80;99.90;;;;;;5055081;28;20821;-72
2022/05/01 02:54:42;;;;;;;13.73;12.47;;;7.80;99.90;;;;;;5056169;28;20960;-72
2022/05/01 02:57:30;;;;;;;14.30;12.93;;;7.80;99.90;;;;;;5057916;28;20588;-72
2022/05/01 03:00:18;;;;;;;14.30;12.80;;;7.80;99.90;;;;;;5053879;28;20545;-72
2022/05/01 03:03:07;;;;;;;17.07;13.10;;;7.80;99.90;;;;;;5056421;28;20453;-72
2022/05/01 03:05:58;;;;;;;13.50;12.10;;;7.80;99.90;;;;;;5053581;28;20463;-72
2022/05/01 03:08:46;;;;;;;13.80;12.40;;;7.80;99.90;;;;;;5057686;28;20844;-72
2022/05/01 03:11:35;;;;;;;14.90;13.47;;;7.80;99.90;;;;;;5056814;28;20546;-72
2022/05/01 03:14:23;;;;;;;15.00;13.60;;;7.80;99.90;;;;;;5055383;28;21370;-72
2022/05/01 03:17:11;;;;;;;16.27;13.07;;;7.80;99.90;;;;;;5057420;28;20812;-72
2022/05/01 03:23:06;;;;;;;13.30;11.93;;;7.80;99.90;;;;;;5052213;28;20582;-71
2022/05/01 03:25:55;;;;;;;14.37;13.07;;;7.90;99.90;;;;;;5057402;28;20542;-72
2022/05/01 03:28:43;;;;;;;15.03;13.27;;;7.90;99.90;;;;;;5042485;28;20511;-72
2022/05/01 03:31:32;;;;;;;13.50;12.13;;;7.80;99.90;;;;;;5055854;28;20532;-72
2022/05/01 03:34:20;;;;;;;15.53;12.47;;;7.90;99.90;;;;;;5054834;28;20510;-72
2022/05/01 03:37:10;;;;;;;12.27;10.97;;;7.90;99.90;;;;;;5054433;28;20465;-72
2022/05/01 03:39:59;;;;;;;13.20;12.10;;;7.90;99.90;;;;;;5057974;28;20565;-72
2022/05/01 03:42:47;;;;;;;13.37;12.17;;;7.90;99.90;;;;;;5053905;28;20457;-72
2022/05/01 03:45:35;;;;;;;13.60;12.20;;;8.00;99.90;;;;;;5052611;28;21135;-72
2022/05/01 03:48:24;;;;;;;14.63;11.20;;;7.90;99.90;;;;;;5050721;28;20605;-72
2022/05/01 03:51:12;;;;;;;15.43;12.60;;;7.90;99.90;;;;;;5055352;28;20522;-72
2022/05/01 03:54:03;;;;;;;14.53;11.67;;;7.90;99.90;;;;;;5051536;28;20555;-72
2022/05/01 03:56:51;;;;;;;13.07;11.43;;;7.90;99.90;;;;;;5056540;28;20497;-72
2022/05/01 03:59:39;;;;;;;12.23;11.03;;;7.90;99.90;;;;;;5053865;28;21098;-72
2022/05/01 04:02:27;;;;;;;12.00;10.70;;;7.90;99.90;;;;;;5055911;28;20462;-72
2022/05/01 04:05:15;;;;;;;11.50;10.40;;;7.90;99.90;;;;;;5055153;28;21423;-72
2022/05/01 04:08:04;;;;;;;12.03;10.87;;;7.90;99.90;;;;;;5055435;28;20544;-72
2022/05/01 04:10:53;;;;;;;12.80;10.07;;;7.90;99.90;;;;;;5053846;28;20445;-72
2022/05/01 04:13:42;;;;;;;11.47;10.37;;;7.90;99.90;;;;;;5053260;28;20537;-72
2022/05/01 04:16:30;;;;;;;11.57;10.37;;;7.90;99.90;;;;;;5058446;28;20578;-72
2022/05/01 04:19:19;;;;;;;11.97;10.43;;;7.90;99.90;;;;;;5054142;28;20470;-72
2022/05/01 04:22:07;;;;;;;12.00;9.73;;;7.90;99.90;;;;;;5056411;28;20507;-72
2022/05/01 04:24:55;;;;;;;10.67;9.67;;;7.90;99.90;;;;;;5052020;28;20904;-72
2022/05/01 04:27:45;;;;;;;10.30;9.30;;;7.90;99.90;;;;;;5057134;28;20495;-72
2022/05/01 04:30:34;;;;;;;13.40;9.67;;;7.80;99.90;;;;;;5056738;28;21243;-72
2022/05/01 04:33:22;;;;;;;10.57;9.53;;;7.80;99.90;;;;;;5056309;28;20464;-72
2022/05/01 04:36:10;;;;;;;10.43;9.30;;;7.80;99.90;;;;;;5056496;28;20461;-72
2022/05/01 04:38:58;;;;;;;10.03;8.97;;;7.70;99.90;;;;;;5057574;28;20561;-72
2022/05/01 04:41:47;;;;;;;11.87;9.40;;;7.80;99.90;;;;;;5054648;28;20556;-72
2022/05/01 04:44:36;;;;;;;11.30;9.80;;;7.70;99.90;;;;;;5053744;28;20486;-72
2022/05/01 04:47:24;;;;;;;10.53;9.53;;;7.70;99.90;;;;;;5060088;28;20450;-72
2022/05/01 04:50:13;;;;;;;11.27;10.00;;;7.70;99.90;;;;;;5055866;28;20510;-72
2022/05/01 04:53:02;;;;;;;10.40;9.60;;;7.70;99.90;;;;;;5056598;28;20881;-72
2022/05/01 04:55:52;;;;;;;10.93;9.87;;;7.80;99.90;;;;;;5056907;28;20923;-72
2022/05/01 04:58:40;;;;;;;10.17;9.10;;;7.80;99.90;;;;;;5058694;28;20574;-72
2022/05/01 05:01:31;;;;;;;11.40;10.20;;;7.80;99.90;;;;;;5057852;28;20855;-72
2022/05/01 05:04:21;;;;;;;11.07;10.10;;;7.70;99.90;;;;;;5058536;28;20845;-72
2022/05/01 05:07:10;;;;;;;11.90;10.80;;;7.70;99.90;;;;;;5057408;28;20684;-72
2022/05/01 05:09:58;;;;;;;12.70;11.50;;;7.60;99.90;;;;;;5056992;28;20541;-72
2022/05/01 05:12:49;;;;;;;11.47;10.33;;;7.70;99.90;;;;;;5061662;28;20445;-72
2022/05/01 05:15:37;;;;;;;12.50;10.37;;;7.70;99.90;;;;;;5060065;28;20625;-72
2022/05/01 05:18:27;;;;;;;11.17;10.23;;;7.70;99.90;;;;;;5059986;28;20506;-71
2022/05/01 05:21:15;;;;;;;12.33;11.03;;;7.70;99.90;;;;;;5062979;28;21132;-72
2022/05/01 05:24:03;;;;;;;14.27;11.60;;;7.80;99.90;;;;;;5059281;28;20975;-72
2022/05/01 05:26:52;;;;;;;11.30;10.30;;;7.80;99.90;;;;;;5057992;28;20489;-72
2022/05/01 05:29:40;;;;;;;12.60;11.40;;;7.80;99.90;;;;;;5062157;28;20515;-72
2022/05/01 05:32:28;;;;;;;13.00;10.03;;;7.80;99.90;;;;;;5061542;28;20443;-72
2022/05/01 05:35:18;;;;;;;12.20;10.90;;;7.80;99.90;;;;;;5059644;28;20628;-72
2022/05/01 05:38:06;;;;;;;12.70;11.40;;;7.80;99.90;;;;;;5061891;28;20588;-72
2022/05/01 05:40:54;;;;;;;15.60;11.13;;;7.80;99.90;;;;;;5060049;28;20963;-72
2022/05/01 05:43:42;;;;;;;12.43;11.10;;;7.80;99.90;;;;;;5058890;28;20545;-72
2022/05/01 05:46:31;;;;;;;14.70;11.60;;;7.80;99.90;;;;;;5060675;28;20457;-72
2022/05/01 05:49:19;;;;;;;11.70;10.50;;;7.80;99.90;;;;;;5059277;28;20989;-72
2022/05/01 05:52:09;;;;;;;12.33;9.97;;;7.80;99.90;;;;;;5059932;28;20442;-72
2022/05/01 05:54:57;;;;;;;11.30;10.20;;;7.90;99.90;;;;;;5050142;28;20514;-72
2022/05/01 05:57:45;;;;;;;11.73;9.77;;;7.90;99.90;;;;;;5057186;28;21350;-72
2022/05/01 06:00:33;;;;;;;11.07;9.90;;;8.00;99.90;;;;;;5053736;28;20687;-72
2022/05/01 06:03:21;;;;;;;12.10;10.50;;;8.00;99.90;;;;;;5057546;28;20448;-72
2022/05/01 06:06:10;;;;;;;10.20;9.20;;;8.00;99.90;;;;;;5053857;28;20465;-72
2022/05/01 06:08:59;;;;;;;13.10;9.40;;;8.00;99.90;;;;;;5057689;28;20565;-73
2022/05/01 06:11:48;;;;;;;9.93;8.90;;;8.00;99.90;;;;;;5053940;28;21015;-72
2022/05/01 06:14:36;;;;;;;9.90;8.27;;;8.10;99.90;;;;;;5053281;28;21004;-72
2022/05/01 06:17:24;;;;;;;11.00;8.80;;;8.10;99.90;;;;;;5054739;28;20458;-72
2022/05/01 06:20:13;;;;;;;9.67;8.67;;;8.20;99.90;;;;;;5050893;28;20515;-72
2022/05/01 06:23:01;;;;;;;11.43;8.27;;;8.30;99.90;;;;;;5049353;28;20810;-71
2022/05/01 06:25:51;;;;;;;8.73;7.30;;;8.30;99.90;;;;;;5051153;28;20488;-73
2022/05/01 06:28:39;;;;;;;8.27;7.07;;;8.40;99.90;;;;;;5058159;28;21009;-71
2022/05/01 06:31:27;;;;;;;7.00;6.10;;;8.40;99.90;;;;;;5054713;28;20581;-72
2022/05/01 06:34:16;;;;;;;8.40;4.90;;;8.50;99.90;;;;;;5044681;28;20505;-72
2022/05/01 06:37:05;;;;;;;6.03;4.23;;;8.50;99.90;;;;;;5055827;28;20534;-73
2022/05/01 06:39:53;;;;;;;4.53;3.70;;;8.60;99.90;;;;;;5051477;28;20528;-72
2022/05/01 06:42:42;;;;;;;3.77;3.47;;;8.70;99.90;;;;;;5055163;28;20442;-72
2022/05/01 06:45:33;;;;;;;4.93;3.40;;;8.80;99.90;;;;;;5041767;28;20481;-72
2022/05/01 06:48:21;;;;;;;4.03;3.73;;;8.80;99.90;;;;;;5047174;28;21102;-75
2022/05/01 06:51:09;;;;;;;4.60;3.73;;;8.80;99.90;;;;;;5046368;28;20540;-74
2022/05/01 06:53:58;;;;;;;5.57;3.83;;;8.90;99.90;;;;;;5049988;28;20481;-74
2022/05/01 06:56:46;;;;;;;5.60;3.73;;;9.00;99.90;;;;;;5049963;28;20491;-74
2022/05/01 06:59:35;;;;;;;7.47;4.13;;;9.00;99.90;;;;;;5050564;28;20455;-74
2022/05/01 07:02:25;;;;;;;6.53;4.37;;;9.00;99.90;;;;;;5047685;28;20971;-74
2022/05/01 07:05:13;;;;;;;4.47;3.87;;;9.10;99.90;;;;;;5048873;28;20481;-74
2022/05/01 07:08:01;;;;;;;5.63;4.77;;;9.00;99.90;;;;;;5054569;28;20473;-74
2022/05/01 07:10:49;;;;;;;4.20;3.90;;;9.00;99.90;;;;;;5050732;28;20592;-73
2022/05/01 07:13:45;;;;;;;8.60;4.70;;;9.00;99.90;;;;;;5046671;28;20473;-75
2022/05/01 07:16:34;;;;;;;7.70;4.50;;;9.00;99.90;;;;;;5052604;28;21005;-74
2022/05/01 07:19:22;;;;;;;6.50;5.40;;;9.10;99.90;;;;;;5050803;28;20588;-73
2022/05/01 07:22:13;;;;;;;5.70;5.20;;;9.10;99.90;;;;;;5055560;28;20473;-73
2022/05/01 07:25:02;;;;;;;6.00;4.60;;;9.20;99.90;;;;;;5049931;28;21043;-73
2022/05/01 07:27:52;;;;;;;4.63;4.13;;;9.20;99.90;;;;;;5051155;28;21968;-73
2022/05/01 07:30:40;;;;;;;5.30;4.37;;;9.30;99.90;;;;;;5049957;28;21090;-73
2022/05/01 07:33:30;;;;;;;5.10;4.50;;;9.40;99.90;;;;;;5053710;28;20542;-73
2022/05/01 07:36:19;;;;;;;5.60;4.87;;;9.40;99.90;;;;;;5055704;28;20494;-73
2022/05/01 07:39:07;;;;;;;4.30;3.90;;;9.50;99.90;;;;;;5052368;28;20504;-73
2022/05/01 07:41:55;;;;;;;6.17;4.37;;;9.60;99.90;;;;;;5051131;28;20530;-73
2022/05/01 07:44:43;;;;;;;6.10;4.67;;;9.70;99.90;;;;;;5051357;28;21050;-72
2022/05/01 07:47:32;;;;;;;6.10;4.70;;;9.70;99.90;;;;;;5052560;28;20517;-72
2022/05/01 07:50:21;;;;;;;4.03;3.57;;;9.80;99.90;;;;;;5048441;28;20457;-70
2022/05/01 07:53:09;;;;;;;5.70;5.10;;;9.80;99.90;;;;;;5046313;28;20532;-69
2022/05/01 07:55:58;;;;;;;5.80;5.20;;;9.80;99.90;;;;;;5050375;28;22232;-72
2022/05/01 07:58:46;;;;;;;5.97;5.07;;;9.90;99.90;;;;;;5052225;28;20532;-69
2022/05/01 08:01:34;;;;;;;7.50;6.90;;;10.00;99.90;;;;;;5056108;28;20481;-69
2022/05/01 08:04:28;;;;;;;7.90;7.20;;;10.10;99.90;;;;;;5049175;28;20574;-69
2022/05/01 08:07:18;;;;;;;10.23;9.37;;;10.10;99.90;;;;;;5050530;28;20457;-72
2022/05/01 08:10:07;;;;;;;9.20;8.50;;;10.30;99.90;;;;;;5049490;28;20454;-71
2022/05/01 08:12:58;;;;;;;9.50;8.57;;;10.40;99.90;;;;;;5047468;28;20996;-72
2022/05/01 08:15:46;;;;;;;9.50;8.60;;;10.40;99.90;;;;;;5055044;28;20484;-73
2022/05/01 08:21:41;;;;;;;11.83;10.73;;;10.50;99.90;;;;;;5052718;28;20577;-70
2022/05/01 08:24:30;;;;;;;10.17;9.30;;;10.60;99.90;;;;;;5047849;28;20477;-71
2022/05/01 08:27:18;;;;;;;10.43;9.33;;;10.60;99.90;;;;;;5049178;28;20460;-70
2022/05/01 08:30:08;;;;;;;12.67;11.50;;;10.70;99.90;;;;;;5041448;28;20588;-70
2022/05/01 08:32:57;;;;;;;11.10;10.20;;;10.80;99.90;;;;;;5043211;28;20914;-70
2022/05/01 08:35:45;;;;;;;9.20;8.40;;;10.80;99.90;;;;;;5046899;28;20705;-71
2022/05/01 08:38:35;;;;;;;6.90;6.30;;;10.90;99.90;;;;;;5045914;28;20477;-70
2022/05/01 08:41:27;;;;;;;6.67;6.07;;;11.00;99.90;;;;;;5050869;28;20470;-69
2022/05/01 08:44:18;;;;;;;6.67;6.07;;;11.10;99.90;;;;;;5051272;28;20481;-73
2022/05/01 08:47:22;;;;;;;6.80;6.10;;;11.10;99.90;;;;;;5054412;28;20944;-71
2022/05/01 08:50:11;;;;;;;6.60;6.00;;;11.30;99.90;;;;;;5054896;28;22260;-69
2022/05/01 08:53:03;;;;;;;6.87;6.17;;;11.20;99.90;;;;;;5052301;28;20547;-71
2022/05/01 08:55:51;;;;;;;5.43;5.03;;;11.30;99.90;;;;;;5053395;28;20481;-72
2022/05/01 08:58:42;;;;;;;4.93;4.43;;;11.30;99.90;;;;;;5054482;28;20473;-71
2022/05/01 09:01:31;;;;;;;4.70;4.30;;;11.30;99.90;;;;;;5059489;28;20604;-71
2022/05/01 09:04:20;;;;;;;7.17;4.30;;;11.40;99.90;;;;;;5057866;28;20479;-71
2022/05/01 09:07:08;;;;;;;4.23;3.83;;;11.50;99.90;;;;;;5059259;28;20973;-71
2022/05/01 09:09:58;;;;;;;4.20;3.90;;;11.50;99.90;;;;;;5057209;28;20492;-72
2022/05/01 09:12:52;;;;;;;4.53;4.13;;;11.50;99.90;;;;;;5063643;28;20477;-71
2022/05/01 09:15:43;;;;;;;4.30;3.90;;;11.60;99.90;;;;;;5055579;28;20492;-71
2022/05/01 09:18:43;;;;;;;4.13;3.57;;;11.60;99.90;;;;;;5058693;28;21023;-72
2022/05/01 09:21:48;;;;;;;2.97;2.60;;;11.80;99.90;;;;;;5055990;28;20534;-71
2022/05/01 09:24:36;;;;;;;2.90;2.70;;;11.80;99.90;;;;;;5049028;28;20553;-71
2022/05/01 09:27:27;;;;;;;2.50;2.30;;;11.90;99.90;;;;;;5056728;28;20446;-71
2022/05/01 09:30:19;;;;;;;2.17;1.97;;;11.80;99.90;;;;;;5055757;28;20528;-73
2022/05/01 09:33:19;;;;;;;3.00;1.93;;;11.90;99.90;;;;;;5056354;28;20449;-70
2022/05/01 09:36:09;;;;;;;2.10;2.00;;;11.90;99.90;;;;;;5053828;28;20458;-73
2022/05/01 09:39:03;;;;;;;2.33;2.10;;;11.90;99.90;;;;;;5053227;28;20480;-73
2022/05/01 09:41:52;;;;;;;1.93;1.80;;;11.90;99.90;;;;;;5058953;28;20577;-71
2022/05/01 09:44:40;;;;;;;2.50;1.50;;;11.90;99.90;;;;;;5058790;28;20473;-71
2022/05/01 09:47:35;;;;;;;1.50;1.40;;;12.00;99.90;;;;;;5061142;28;20977;-71
2022/05/01 09:50:41;;;;;;;2.10;1.93;;;12.10;99.90;;;;;;5047816;28;20480;-71
2022/05/01 09:53:41;;;;;;;3.07;1.80;;;12.30;99.90;;;;;;5054519;28;20481;-72
2022/05/01 09:56:42;;;;;;;2.70;1.20;;;12.50;99.90;;;;;;5055886;28;20446;-71
2022/05/01 09:59:45;;;;;;;1.70;1.30;;;12.60;99.90;;;;;;5051419;28;21572;-74
2022/05/01 10:02:36;;;;;;;2.20;1.30;;;12.70;99.90;;;;;;5053523;28;20484;-71
2022/05/01 10:05:24;;;;;;;1.40;1.30;;;12.90;99.90;;;;;;5048270;28;20516;-71
2022/05/01 10:08:14;;;;;;;2.10;1.40;;;13.00;99.90;;;;;;5060270;28;20496;-71
2022/05/01 10:11:04;;;;;;;1.47;1.37;;;13.10;99.90;;;;;;5051611;28;21781;-72
2022/05/01 10:13:52;;;;;;;1.27;1.20;;;13.20;99.90;;;;;;5059000;28;20556;-71
2022/05/01 10:16:42;;;;;;;1.43;1.23;;;13.20;99.90;;;;;;5058510;28;20823;-72
2022/05/01 10:19:32;;;;;;;1.40;1.30;;;13.10;99.90;;;;;;5058640;28;20500;-72
2022/05/01 10:22:21;;;;;;;1.53;1.43;;;13.10;99.90;;;;;;5054490;28;20627;-71
2022/05/01 10:25:17;;;;;;;1.70;1.50;;;13.10;99.90;;;;;;5056510;28;20535;-70
2022/05/01 10:28:15;;;;;;;2.00;1.80;;;13.10;99.90;;;;;;5052689;28;20627;-70
2022/05/01 10:34:39;;;;;;;2.53;1.77;;;13.10;99.90;;;;;;5056725;28;20474;-70
2022/05/01 10:37:50;;;;;;;2.23;1.70;;;13.10;99.90;;;;;;5053451;28;20630;-70
2022/05/01 10:40:46;;;;;;;1.50;1.40;;;13.10;99.90;;;;;;5049956;28;20612;-70
2022/05/01 10:43:36;;;;;;;1.80;1.70;;;13.20;99.90;;;;;;5058193;28;20478;-72
2022/05/01 10:46:29;;;;;;;2.40;1.90;;;13.20;99.90;;;;;;5059942;28;20454;-72
2022/05/01 10:49:33;;;;;;;1.70;1.60;;;13.30;99.90;;;;;;5059815;28;20486;-72
2022/05/01 10:52:22;;;;;;;2.73;1.50;;;13.40;99.90;;;;;;5059056;28;20443;-69
2022/05/01 10:55:11;;;;;;;2.20;2.00;;;13.40;99.90;;;;;;5061647;28;21081;-72
2022/05/01 10:58:19;;;;;;;2.60;2.13;;;13.50;99.90;;;;;;5061089;28;20560;-72
2022/05/01 11:01:07;;;;;;;2.33;1.77;;;13.60;99.90;;;;;;5062347;28;20508;-73
2022/05/01 11:03:57;;;;;;;1.57;1.47;;;13.60;99.90;;;;;;5056327;28;20989;-72
2022/05/01 11:06:46;;;;;;;1.47;1.37;;;13.60;99.90;;;;;;5061183;28;20469;-72
2022/05/01 11:09:36;;;;;;;1.87;1.60;;;13.60;99.90;;;;;;5056679;28;20470;-72
2022/05/01 11:12:26;;;;;;;1.60;1.37;;;13.60;99.90;;;;;;5058027;28;20465;-72
2022/05/01 11:15:27;;;;;;;1.90;1.80;;;13.60;99.90;;;;;;5056070;28;21621;-70
2022/05/01 11:18:15;;;;;;;1.83;1.73;;;13.70;99.90;;;;;;5058275;28;20545;-71
2022/05/01 11:21:36;;;;;;;1.80;1.60;;;13.70;99.90;;;;;;5056864;28;20854;-71
2022/05/01 11:24:42;;;;;;;2.33;1.40;;;13.70;99.90;;;;;;5056871;28;20538;-71
2022/05/01 11:27:48;;;;;;;1.67;1.57;;;13.70;99.90;;;;;;5056534;28;20473;-71
2022/05/01 11:30:38;;;;;;;1.50;1.40;;;13.60;99.90;;;;;;5058106;28;20530;-71
2022/05/01 11:33:26;;;;;;;1.60;1.40;;;13.60;99.90;;;;;;5057416;28;20497;-71
2022/05/01 11:36:14;;;;;;;1.33;1.33;;;13.70;99.90;;;;;;5058047;28;20481;-71
2022/05/01 11:39:03;;;;;;;2.07;1.73;;;13.70;99.90;;;;;;5056887;28;20502;-71
2022/05/01 11:42:00;;;;;;;1.63;1.53;;;13.70;99.90;;;;;;5058490;28;20527;-71
2022/05/01 11:44:49;;;;;;;2.07;1.57;;;13.70;99.90;;;;;;5054436;28;20505;-71
2022/05/01 11:47:40;;;;;;;3.03;1.80;;;13.70;99.90;;;;;;5053910;28;20482;-70
2022/05/01 11:50:28;;;;;;;1.67;1.53;;;13.70;99.90;;;;;;5052563;28;20615;-70
2022/05/01 11:53:18;;;;;;;1.83;1.50;;;13.60;99.90;;;;;;5056784;28;20447;-70
2022/05/01 12:02:25;;;;;;;1.60;1.50;;;13.70;99.90;;;;;;5056876;28;20596;-70
2022/05/01 12:05:16;;;;;;;1.60;1.50;;;13.70;99.90;;;;;;5052966;28;20615;-73
2022/05/01 12:08:04;;;;;;;2.07;1.50;;;13.70;99.90;;;;;;5054212;28;20485;-73
2022/05/01 12:10:53;;;;;;;1.60;1.50;;;13.80;99.90;;;;;;5052960;28;20551;-70
2022/05/01 12:13:41;;;;;;;2.83;1.47;;;13.90;99.90;;;;;;5052873;28;21357;-70
2022/05/01 12:16:29;;;;;;;1.67;1.57;;;13.90;99.90;;;;;;5049041;28;20458;-71
2022/05/01 12:19:17;;;;;;;1.93;1.60;;;14.00;99.90;;;;;;5057507;28;20857;-71
2022/05/01 12:22:08;;;;;;;2.30;2.10;;;14.10;99.90;;;;;;5051229;28;20606;-70
2022/05/01 12:24:56;;;;;;;2.47;1.77;;;14.30;99.90;;;;;;5054992;28;20482;-71
2022/05/01 12:27:47;;;;;;;2.40;1.60;;;14.40;99.90;;;;;;5059567;28;20475;-71
2022/05/01 12:30:35;;;;;;;1.83;1.70;;;14.60;99.90;;;;;;5053644;28;20607;-71
2022/05/01 12:33:24;;;;;;;2.87;2.00;;;14.70;99.90;;;;;;5056152;28;20565;-71
2022/05/01 12:36:23;;;;;;;2.03;1.93;;;14.70;99.90;;;;;;5058536;28;20449;-71
2022/05/01 12:39:20;;;;;;;2.30;1.90;;;14.80;99.90;;;;;;5054764;28;21069;-71
2022/05/01 12:45:18;;;;;;;3.60;1.63;;;14.90;99.90;;;;;;5050036;28;20509;-70
2022/05/01 12:48:08;;;;;;;4.03;1.80;;;15.00;99.90;;;;;;5054002;28;20525;-69
2022/05/01 12:50:56;;;;;;;2.00;1.60;;;15.00;99.90;;;;;;5053024;28;20447;-70
2022/05/01 12:53:45;;;;;;;1.67;1.50;;;15.10;99.90;;;;;;5055486;28;20520;-72
2022/05/01 12:56:35;;;;;;;1.70;1.60;;;15.10;99.90;;;;;;5051451;28;20454;-69
2022/05/01 12:59:24;;;;;;;1.60;1.50;;;15.20;99.90;;;;;;5047677;28;20804;-69
2022/05/01 13:02:18;;;;;;;2.30;1.57;;;15.10;99.90;;;;;;5053481;28;20545;-69
2022/05/01 13:05:07;;;;;;;2.10;1.93;;;15.10;99.90;;;;;;5050015;28;20504;-69
2022/05/01 13:07:59;;;;;;;2.53;1.77;;;15.10;99.90;;;;;;5054811;28;20501;-69
2022/05/01 13:11:13;;;;;;;1.93;1.70;;;15.10;99.90;;;;;;5058157;28;20535;-69
2022/05/01 13:14:04;;;;;;;1.83;1.60;;;15.10;99.90;;;;;;5054756;28;20554;-71
2022/05/01 13:16:53;;;;;;;1.70;1.60;;;15.00;99.90;;;;;;5060530;28;20494;-71
2022/05/01 13:19:43;;;;;;;1.80;1.70;;;15.00;99.90;;;;;;5054123;28;20462;-71
2022/05/01 13:22:32;;;;;;;4.03;2.20;;;14.90;99.90;;;;;;5058303;28;20548;-71
2022/05/01 13:25:20;;;;;;;1.60;1.50;;;14.90;99.90;;;;;;5056914;28;20620;-69
2022/05/01 13:28:09;;;;;;;2.60;1.70;;;14.80;99.90;;;;;;5056695;28;20611;-71
2022/05/01 13:30:58;;;;;;;1.77;1.60;;;14.80;99.90;;;;;;5060125;28;20811;-69
2022/05/01 13:33:47;;;;;;;2.53;1.93;;;14.80;99.90;;;;;;5059298;28;20454;-69
2022/05/01 13:36:37;;;;;;;1.93;1.53;;;14.80;99.90;;;;;;5056045;28;20965;-69
2022/05/01 13:44:44;;;;;;;2.17;1.90;;;14.80;99.90;;;;;;5058162;28;20913;-69
2022/05/01 13:45:41;;;;;;;2.70;1.63;;;14.80;99.90;;;;;;5053643;28;20477;-69
2022/05/01 13:48:30;;;;;;;4.03;2.03;;;14.70;99.90;;;;;;5058088;28;20972;-69
2022/05/01 13:51:20;;;;;;;2.30;2.10;;;14.70;99.90;;;;;;5059420;28;20589;-69
2022/05/01 13:54:09;;;;;;;1.97;1.77;;;14.70;99.90;;;;;;5056932;28;20591;-69
2022/05/01 13:56:57;;;;;;;3.73;1.90;;;14.70;99.90;;;;;;5049375;28;22186;-69
2022/05/01 13:59:45;;;;;;;3.73;2.13;;;14.60;99.90;;;;;;5051325;28;20449;-69
2022/05/01 14:02:35;;;;;;;2.40;1.60;;;14.60;99.90;;;;;;5048705;28;20457;-69
2022/05/01 14:05:25;;;;;;;3.53;2.27;;;14.60;99.90;;;;;;5055462;28;20594;-71
2022/05/01 14:08:13;;;;;;;2.13;1.93;;;14.60;99.90;;;;;;5051125;28;21121;-69
2022/05/01 14:11:03;;;;;;;2.00;1.87;;;14.60;99.90;;;;;;5048560;28;21440;-71
2022/05/01 14:13:51;;;;;;;3.33;2.27;;;14.50;99.90;;;;;;5047326;28;20552;-72
2022/05/01 14:16:41;;;;;;;2.50;2.30;;;14.70;99.90;;;;;;5054073;28;20466;-70
2022/05/01 14:19:30;;;;;;;5.43;2.73;;;14.70;99.90;;;;;;5054955;28;20489;-71
2022/05/01 14:22:21;;;;;;;2.77;2.57;;;14.60;99.90;;;;;;5053460;28;20607;-71
2022/05/01 14:25:14;;;;;;;2.70;2.50;;;14.50;99.90;;;;;;5052943;28;20473;-71
2022/05/01 14:28:02;;;;;;;3.43;3.07;;;14.60;99.90;;;;;;5055034;28;20503;-72
2022/05/01 14:30:56;;;;;;;3.90;2.70;;;14.50;99.90;;;;;;5057207;28;20920;-71
2022/05/01 14:33:47;;;;;;;3.30;2.90;;;14.50;99.90;;;;;;5049972;28;20478;-69
2022/05/01 14:36:38;;;;;;;3.43;2.60;;;14.50;99.90;;;;;;5050865;28;20548;-70
2022/05/01 14:39:29;;;;;;;3.43;2.57;;;14.40;99.90;;;;;;5054405;28;20690;-72
2022/05/01 14:42:18;;;;;;;3.10;2.80;;;14.40;99.90;;;;;;5055905;28;20455;-70
2022/05/01 14:45:08;;;;;;;3.13;2.60;;;14.40;99.90;;;;;;5055822;28;20647;-71
2022/05/01 14:48:05;;;;;;;4.17;3.77;;;14.40;99.90;;;;;;5053451;28;20496;-70
2022/05/01 14:50:59;;;;;;;6.00;3.70;;;14.30;99.90;;;;;;5047820;28;20561;-72
2022/05/01 14:53:48;;;;;;;3.70;3.40;;;14.20;99.90;;;;;;5055896;28;20604;-72
2022/05/01 14:56:38;;;;;;;3.80;2.37;;;14.20;99.90;;;;;;5054327;28;20926;-72
2022/05/01 15:08:46;;;;;;;5.67;3.60;;;14.30;99.90;;;;;;5050403;28;20474;-69
2022/05/01 15:11:38;;;;;;;4.10;3.70;;;14.30;99.90;;;;;;5054028;28;21052;-71
2022/05/01 15:14:27;;;;;;;4.80;3.73;;;14.30;99.90;;;;;;5043498;28;20888;-71
2022/05/01 15:17:24;;;;;;;4.03;3.73;;;14.20;99.90;;;;;;5050356;28;20460;-71
2022/05/01 15:20:20;;;;;;;4.47;3.33;;;14.10;99.90;;;;;;5056065;28;20866;-70
2022/05/01 15:23:12;;;;;;;4.27;3.67;;;14.10;99.90;;;;;;5049345;28;20821;-71
2022/05/01 15:26:02;;;;;;;5.70;3.77;;;14.00;99.90;;;;;;5052056;28;20542;-73